sensor_id;sensor_type;location;lat;lon;timestamp;P1;durP1;ratioP1;P2;durP2;ratioP2
20090;SDS011;10205;49.678;6.560;2023-04-01T00:01:50;2.55;;;1.20;;
20090;SDS011;10205;49.678;6.560;2023-04-01T00:04:17;3.08;;;1.33;;
20090;SDS011;10205;49.678;6.560;2023-04-01T00:06:45;2.95;;;1.30;;
20090;SDS011;10205;49.678;6.560;2023-04-01T00:09:13;4.22;;;1.48;;
20090;SDS011;10205;49.678;6.560;2023-04-01T00:11:41;4.90;;;1.40;;
20090;SDS011;10205;49.678;6.560;2023-04-01T00:14:09;4.35;;;1.25;;
20090;SDS011;10205;49.678;6.560;2023-04-01T00:16:38;3.67;;;1.30;;
20090;SDS011;10205;49.678;6.560;2023-04-01T00:19:07;2.45;;;1.25;;
20090;SDS011;10205;49.678;6.560;2023-04-01T00:21:34;2.70;;;1.02;;
20090;SDS011;10205;49.678;6.560;2023-04-01T00:24:01;4.43;;;1.35;;
20090;SDS011;10205;49.678;6.560;2023-04-01T00:26:29;4.82;;;1.67;;
20090;SDS011;10205;49.678;6.560;2023-04-01T00:28:56;3.35;;;1.35;;
20090;SDS011;10205;49.678;6.560;2023-04-01T00:31:27;3.75;;;1.30;;
20090;SDS011;10205;49.678;6.560;2023-04-01T00:33:55;3.13;;;1.42;;
20090;SDS011;10205;49.678;6.560;2023-04-01T00:36:24;2.58;;;1.38;;
20090;SDS011;10205;49.678;6.560;2023-04-01T00:38:51;2.50;;;1.17;;
20090;SDS011;10205;49.678;6.560;2023-04-01T00:41:18;5.03;;;1.30;;
20090;SDS011;10205;49.678;6.560;2023-04-01T00:43:47;3.38;;;1.10;;
20090;SDS011;10205;49.678;6.560;2023-04-01T00:46:19;3.83;;;1.73;;
20090;SDS011;10205;49.678;6.560;2023-04-01T00:48:47;2.13;;;1.40;;
20090;SDS011;10205;49.678;6.560;2023-04-01T00:51:19;2.50;;;1.13;;
20090;SDS011;10205;49.678;6.560;2023-04-01T00:53:52;3.03;;;1.35;;
20090;SDS011;10205;49.678;6.560;2023-04-01T00:56:22;2.08;;;1.30;;
20090;SDS011;10205;49.678;6.560;2023-04-01T00:58:58;3.47;;;1.30;;
20090;SDS011;10205;49.678;6.560;2023-04-01T01:01:33;3.30;;;1.88;;
20090;SDS011;10205;49.678;6.560;2023-04-01T01:04:01;4.43;;;1.65;;
20090;SDS011;10205;49.678;6.560;2023-04-01T01:06:34;2.72;;;1.35;;
20090;SDS011;10205;49.678;6.560;2023-04-01T01:09:14;3.97;;;1.10;;
20090;SDS011;10205;49.678;6.560;2023-04-01T01:11:59;2.30;;;1.10;;
20090;SDS011;10205;49.678;6.560;2023-04-01T01:14:40;3.45;;;1.30;;
20090;SDS011;10205;49.678;6.560;2023-04-01T01:17:31;2.42;;;1.55;;
20090;SDS011;10205;49.678;6.560;2023-04-01T01:23:54;2.63;;;1.30;;
20090;SDS011;10205;49.678;6.560;2023-04-01T01:26:46;4.80;;;1.30;;
20090;SDS011;10205;49.678;6.560;2023-04-01T01:29:29;3.60;;;1.70;;
20090;SDS011;10205;49.678;6.560;2023-04-01T01:32:15;6.22;;;2.00;;
20090;SDS011;10205;49.678;6.560;2023-04-01T01:35:10;3.53;;;1.52;;
20090;SDS011;10205;49.678;6.560;2023-04-01T01:37:47;4.25;;;1.60;;
20090;SDS011;10205;49.678;6.560;2023-04-01T01:40:20;4.22;;;1.13;;
20090;SDS011;10205;49.678;6.560;2023-04-01T01:42:51;3.13;;;1.13;;
20090;SDS011;10205;49.678;6.560;2023-04-01T01:45:24;3.92;;;1.35;;
20090;SDS011;10205;49.678;6.560;2023-04-01T01:47:54;1.60;;;1.10;;
20090;SDS011;10205;49.678;6.560;2023-04-01T01:50:25;5.22;;;1.30;;
20090;SDS011;10205;49.678;6.560;2023-04-01T01:53:00;3.55;;;1.42;;
20090;SDS011;10205;49.678;6.560;2023-04-01T01:55:29;4.55;;;1.48;;
20090;SDS011;10205;49.678;6.560;2023-04-01T01:58:01;2.83;;;1.52;;
20090;SDS011;10205;49.678;6.560;2023-04-01T02:00:35;6.28;;;1.58;;
20090;SDS011;10205;49.678;6.560;2023-04-01T02:03:03;3.80;;;1.73;;
20090;SDS011;10205;49.678;6.560;2023-04-01T02:05:33;2.45;;;1.10;;
20090;SDS011;10205;49.678;6.560;2023-04-01T02:08:03;3.92;;;1.42;;
20090;SDS011;10205;49.678;6.560;2023-04-01T02:10:36;4.20;;;1.63;;
20090;SDS011;10205;49.678;6.560;2023-04-01T02:13:09;3.05;;;1.20;;
20090;SDS011;10205;49.678;6.560;2023-04-01T02:15:46;4.88;;;1.30;;
20090;SDS011;10205;49.678;6.560;2023-04-01T02:18:20;6.70;;;1.77;;
20090;SDS011;10205;49.678;6.560;2023-04-01T02:20:50;2.45;;;1.80;;
20090;SDS011;10205;49.678;6.560;2023-04-01T02:23:18;2.58;;;1.23;;
20090;SDS011;10205;49.678;6.560;2023-04-01T02:25:46;3.30;;;1.40;;
20090;SDS011;10205;49.678;6.560;2023-04-01T02:28:14;3.08;;;1.30;;
20090;SDS011;10205;49.678;6.560;2023-04-01T02:30:45;4.35;;;1.95;;
20090;SDS011;10205;49.678;6.560;2023-04-01T02:33:16;4.28;;;1.52;;
20090;SDS011;10205;49.678;6.560;2023-04-01T02:35:45;4.57;;;1.35;;
20090;SDS011;10205;49.678;6.560;2023-04-01T02:38:14;3.90;;;1.35;;
20090;SDS011;10205;49.678;6.560;2023-04-01T02:40:43;4.15;;;1.50;;
20090;SDS011;10205;49.678;6.560;2023-04-01T02:43:13;4.45;;;1.65;;
20090;SDS011;10205;49.678;6.560;2023-04-01T02:45:41;3.08;;;1.23;;
20090;SDS011;10205;49.678;6.560;2023-04-01T02:48:08;5.68;;;1.40;;
20090;SDS011;10205;49.678;6.560;2023-04-01T02:50:35;2.42;;;1.15;;
20090;SDS011;10205;49.678;6.560;2023-04-01T02:53:02;1.67;;;1.20;;
20090;SDS011;10205;49.678;6.560;2023-04-01T02:55:32;4.55;;;1.88;;
20090;SDS011;10205;49.678;6.560;2023-04-01T02:58:00;3.92;;;1.30;;
20090;SDS011;10205;49.678;6.560;2023-04-01T03:00:28;3.20;;;1.40;;
20090;SDS011;10205;49.678;6.560;2023-04-01T03:02:55;2.33;;;1.35;;
20090;SDS011;10205;49.678;6.560;2023-04-01T03:05:22;5.88;;;1.40;;
20090;SDS011;10205;49.678;6.560;2023-04-01T03:07:50;3.13;;;1.33;;
20090;SDS011;10205;49.678;6.560;2023-04-01T03:10:17;2.78;;;1.42;;
20090;SDS011;10205;49.678;6.560;2023-04-01T03:12:46;2.92;;;1.20;;
20090;SDS011;10205;49.678;6.560;2023-04-01T03:15:14;3.10;;;1.40;;
20090;SDS011;10205;49.678;6.560;2023-04-01T03:17:41;2.47;;;1.20;;
20090;SDS011;10205;49.678;6.560;2023-04-01T03:20:09;2.80;;;1.27;;
20090;SDS011;10205;49.678;6.560;2023-04-01T03:22:37;3.55;;;1.42;;
20090;SDS011;10205;49.678;6.560;2023-04-01T03:25:05;4.28;;;1.48;;
20090;SDS011;10205;49.678;6.560;2023-04-01T03:27:34;1.67;;;0.90;;
20090;SDS011;10205;49.678;6.560;2023-04-01T03:30:03;2.72;;;1.45;;
20090;SDS011;10205;49.678;6.560;2023-04-01T03:32:32;3.42;;;1.52;;
20090;SDS011;10205;49.678;6.560;2023-04-01T03:35:00;1.52;;;1.00;;
20090;SDS011;10205;49.678;6.560;2023-04-01T03:37:27;3.97;;;1.23;;
20090;SDS011;10205;49.678;6.560;2023-04-01T03:39:54;4.13;;;1.10;;
20090;SDS011;10205;49.678;6.560;2023-04-01T03:42:22;2.92;;;1.35;;
20090;SDS011;10205;49.678;6.560;2023-04-01T03:44:49;3.67;;;1.42;;
20090;SDS011;10205;49.678;6.560;2023-04-01T03:47:17;3.22;;;1.13;;
20090;SDS011;10205;49.678;6.560;2023-04-01T03:49:44;4.50;;;1.23;;
20090;SDS011;10205;49.678;6.560;2023-04-01T03:52:12;2.97;;;1.25;;
20090;SDS011;10205;49.678;6.560;2023-04-01T03:54:39;2.13;;;1.27;;
20090;SDS011;10205;49.678;6.560;2023-04-01T03:57:06;2.40;;;1.43;;
20090;SDS011;10205;49.678;6.560;2023-04-01T03:59:33;1.90;;;1.20;;
20090;SDS011;10205;49.678;6.560;2023-04-01T04:02:01;2.80;;;1.10;;
20090;SDS011;10205;49.678;6.560;2023-04-01T04:04:30;6.43;;;1.50;;
20090;SDS011;10205;49.678;6.560;2023-04-01T04:06:57;2.33;;;1.20;;
20090;SDS011;10205;49.678;6.560;2023-04-01T04:09:24;1.95;;;1.00;;
20090;SDS011;10205;49.678;6.560;2023-04-01T04:11:51;1.98;;;1.00;;
20090;SDS011;10205;49.678;6.560;2023-04-01T04:14:19;3.22;;;1.30;;
20090;SDS011;10205;49.678;6.560;2023-04-01T04:16:46;3.05;;;1.30;;
20090;SDS011;10205;49.678;6.560;2023-04-01T04:19:13;2.72;;;1.20;;
20090;SDS011;10205;49.678;6.560;2023-04-01T04:21:42;2.25;;;1.00;;
20090;SDS011;10205;49.678;6.560;2023-04-01T04:24:09;3.78;;;1.35;;
20090;SDS011;10205;49.678;6.560;2023-04-01T04:26:36;1.83;;;1.05;;
20090;SDS011;10205;49.678;6.560;2023-04-01T04:29:03;2.42;;;1.10;;
20090;SDS011;10205;49.678;6.560;2023-04-01T04:31:30;1.55;;;1.00;;
20090;SDS011;10205;49.678;6.560;2023-04-01T04:34:00;1.83;;;0.93;;
20090;SDS011;10205;49.678;6.560;2023-04-01T04:36:28;1.70;;;1.10;;
20090;SDS011;10205;49.678;6.560;2023-04-01T04:38:56;1.83;;;1.02;;
20090;SDS011;10205;49.678;6.560;2023-04-01T04:41:26;2.30;;;0.90;;
20090;SDS011;10205;49.678;6.560;2023-04-01T04:43:54;2.88;;;1.02;;
20090;SDS011;10205;49.678;6.560;2023-04-01T04:46:23;3.33;;;1.10;;
20090;SDS011;10205;49.678;6.560;2023-04-01T04:48:51;1.90;;;0.80;;
20090;SDS011;10205;49.678;6.560;2023-04-01T04:51:18;0.90;;;0.80;;
20090;SDS011;10205;49.678;6.560;2023-04-01T04:53:47;1.25;;;0.85;;
20090;SDS011;10205;49.678;6.560;2023-04-01T04:56:18;2.90;;;1.10;;
20090;SDS011;10205;49.678;6.560;2023-04-01T04:58:48;1.70;;;0.95;;
20090;SDS011;10205;49.678;6.560;2023-04-01T05:01:15;1.25;;;0.90;;
20090;SDS011;10205;49.678;6.560;2023-04-01T05:03:44;2.35;;;1.00;;
20090;SDS011;10205;49.678;6.560;2023-04-01T05:06:12;1.73;;;1.00;;
20090;SDS011;10205;49.678;6.560;2023-04-01T05:08:42;1.08;;;0.98;;
20090;SDS011;10205;49.678;6.560;2023-04-01T05:11:12;2.20;;;0.90;;
20090;SDS011;10205;49.678;6.560;2023-04-01T05:13:43;1.13;;;0.80;;
20090;SDS011;10205;49.678;6.560;2023-04-01T05:16:11;2.22;;;1.00;;
20090;SDS011;10205;49.678;6.560;2023-04-01T05:18:41;1.80;;;0.80;;
20090;SDS011;10205;49.678;6.560;2023-04-01T05:21:08;1.40;;;0.90;;
20090;SDS011;10205;49.678;6.560;2023-04-01T05:23:37;0.88;;;0.88;;
20090;SDS011;10205;49.678;6.560;2023-04-01T05:26:05;0.75;;;0.75;;
20090;SDS011;10205;49.678;6.560;2023-04-01T05:28:34;4.00;;;1.38;;
20090;SDS011;10205;49.678;6.560;2023-04-01T05:31:03;2.35;;;0.90;;
20090;SDS011;10205;49.678;6.560;2023-04-01T05:33:31;1.92;;;1.30;;
20090;SDS011;10205;49.678;6.560;2023-04-01T05:36:05;1.85;;;0.80;;
20090;SDS011;10205;49.678;6.560;2023-04-01T05:38:34;0.95;;;0.80;;
20090;SDS011;10205;49.678;6.560;2023-04-01T05:41:02;1.92;;;0.70;;
20090;SDS011;10205;49.678;6.560;2023-04-01T05:43:30;1.35;;;0.88;;
20090;SDS011;10205;49.678;6.560;2023-04-01T05:45:57;1.55;;;0.90;;
20090;SDS011;10205;49.678;6.560;2023-04-01T05:48:26;1.40;;;0.80;;
20090;SDS011;10205;49.678;6.560;2023-04-01T05:50:53;1.23;;;0.80;;
20090;SDS011;10205;49.678;6.560;2023-04-01T05:53:20;0.98;;;0.88;;
20090;SDS011;10205;49.678;6.560;2023-04-01T05:55:47;1.13;;;0.98;;
20090;SDS011;10205;49.678;6.560;2023-04-01T05:58:14;2.25;;;1.13;;
20090;SDS011;10205;49.678;6.560;2023-04-01T06:00:42;0.93;;;0.85;;
20090;SDS011;10205;49.678;6.560;2023-04-01T06:03:09;1.25;;;0.88;;
20090;SDS011;10205;49.678;6.560;2023-04-01T06:05:41;0.98;;;0.90;;
20090;SDS011;10205;49.678;6.560;2023-04-01T06:08:10;1.25;;;0.75;;
20090;SDS011;10205;49.678;6.560;2023-04-01T06:10:44;1.08;;;0.80;;
20090;SDS011;10205;49.678;6.560;2023-04-01T06:13:29;1.63;;;0.70;;
20090;SDS011;10205;49.678;6.560;2023-04-01T06:16:21;0.70;;;0.70;;
20090;SDS011;10205;49.678;6.560;2023-04-01T06:19:22;1.25;;;0.77;;
20090;SDS011;10205;49.678;6.560;2023-04-01T06:22:07;0.95;;;0.60;;
20090;SDS011;10205;49.678;6.560;2023-04-01T06:25:13;1.08;;;0.80;;
20090;SDS011;10205;49.678;6.560;2023-04-01T06:28:05;0.70;;;0.60;;
20090;SDS011;10205;49.678;6.560;2023-04-01T06:30:57;1.35;;;0.90;;
20090;SDS011;10205;49.678;6.560;2023-04-01T06:33:35;0.77;;;0.68;;
20090;SDS011;10205;49.678;6.560;2023-04-01T06:39:22;0.80;;;0.80;;
20090;SDS011;10205;49.678;6.560;2023-04-01T06:42:33;1.83;;;0.60;;
20090;SDS011;10205;49.678;6.560;2023-04-01T06:45:20;1.50;;;0.90;;
20090;SDS011;10205;49.678;6.560;2023-04-01T06:48:03;0.60;;;0.60;;
20090;SDS011;10205;49.678;6.560;2023-04-01T06:50:58;0.80;;;0.70;;
20090;SDS011;10205;49.678;6.560;2023-04-01T06:53:41;0.68;;;0.68;;
20090;SDS011;10205;49.678;6.560;2023-04-01T06:56:24;4.55;;;0.90;;
20090;SDS011;10205;49.678;6.560;2023-04-01T06:58:54;0.80;;;0.80;;
20090;SDS011;10205;49.678;6.560;2023-04-01T07:01:28;0.70;;;0.70;;
20090;SDS011;10205;49.678;6.560;2023-04-01T07:04:04;1.80;;;0.80;;
20090;SDS011;10205;49.678;6.560;2023-04-01T07:06:38;1.00;;;0.75;;
20090;SDS011;10205;49.678;6.560;2023-04-01T07:09:13;0.80;;;0.80;;
20090;SDS011;10205;49.678;6.560;2023-04-01T07:11:56;0.90;;;0.80;;
20090;SDS011;10205;49.678;6.560;2023-04-01T07:14:31;0.80;;;0.70;;
20090;SDS011;10205;49.678;6.560;2023-04-01T07:17:03;0.60;;;0.60;;
20090;SDS011;10205;49.678;6.560;2023-04-01T07:19:41;0.60;;;0.60;;
20090;SDS011;10205;49.678;6.560;2023-04-01T07:22:19;1.48;;;0.93;;
20090;SDS011;10205;49.678;6.560;2023-04-01T07:24:56;0.70;;;0.60;;
20090;SDS011;10205;49.678;6.560;2023-04-01T07:27:30;0.90;;;0.90;;
20090;SDS011;10205;49.678;6.560;2023-04-01T07:29:58;0.88;;;0.75;;
20090;SDS011;10205;49.678;6.560;2023-04-01T07:32:30;0.70;;;0.70;;
20090;SDS011;10205;49.678;6.560;2023-04-01T07:35:13;1.25;;;0.77;;
20090;SDS011;10205;49.678;6.560;2023-04-01T07:37:57;0.77;;;0.70;;
20090;SDS011;10205;49.678;6.560;2023-04-01T07:40:47;0.70;;;0.70;;
20090;SDS011;10205;49.678;6.560;2023-04-01T07:43:25;0.80;;;0.80;;
20090;SDS011;10205;49.678;6.560;2023-04-01T07:46:23;0.63;;;0.63;;
20090;SDS011;10205;49.678;6.560;2023-04-01T07:49:07;2.10;;;0.80;;
20090;SDS011;10205;49.678;6.560;2023-04-01T07:51:42;0.80;;;0.80;;
20090;SDS011;10205;49.678;6.560;2023-04-01T07:54:25;0.80;;;0.80;;
20090;SDS011;10205;49.678;6.560;2023-04-01T07:57:05;2.53;;;1.00;;
20090;SDS011;10205;49.678;6.560;2023-04-01T07:59:45;1.80;;;1.60;;
20090;SDS011;10205;49.678;6.560;2023-04-01T08:02:27;3.05;;;1.90;;
20090;SDS011;10205;49.678;6.560;2023-04-01T08:05:11;1.73;;;1.50;;
20090;SDS011;10205;49.678;6.560;2023-04-01T08:07:49;1.70;;;1.60;;
20090;SDS011;10205;49.678;6.560;2023-04-01T08:10:35;1.70;;;1.60;;
20090;SDS011;10205;49.678;6.560;2023-04-01T08:13:11;1.60;;;1.50;;
20090;SDS011;10205;49.678;6.560;2023-04-01T08:15:56;1.50;;;1.40;;
20090;SDS011;10205;49.678;6.560;2023-04-01T08:18:36;1.20;;;1.10;;
20090;SDS011;10205;49.678;6.560;2023-04-01T08:21:13;1.77;;;1.23;;
20090;SDS011;10205;49.678;6.560;2023-04-01T08:23:48;0.90;;;0.90;;
20090;SDS011;10205;49.678;6.560;2023-04-01T08:26:23;1.30;;;1.20;;
20090;SDS011;10205;49.678;6.560;2023-04-01T08:29:02;2.38;;;1.00;;
20090;SDS011;10205;49.678;6.560;2023-04-01T08:31:39;0.90;;;0.90;;
20090;SDS011;10205;49.678;6.560;2023-04-01T08:34:19;1.17;;;0.97;;
20090;SDS011;10205;49.678;6.560;2023-04-01T08:36:51;0.80;;;0.80;;
20090;SDS011;10205;49.678;6.560;2023-04-01T08:39:28;0.93;;;0.90;;
20090;SDS011;10205;49.678;6.560;2023-04-01T08:42:19;1.77;;;1.00;;
20090;SDS011;10205;49.678;6.560;2023-04-01T08:45:11;0.88;;;0.80;;
20090;SDS011;10205;49.678;6.560;2023-04-01T08:48:06;1.10;;;0.80;;
20090;SDS011;10205;49.678;6.560;2023-04-01T08:50:53;1.10;;;1.10;;
20090;SDS011;10205;49.678;6.560;2023-04-01T08:54:02;1.05;;;0.88;;
20090;SDS011;10205;49.678;6.560;2023-04-01T08:56:55;1.67;;;1.08;;
20090;SDS011;10205;49.678;6.560;2023-04-01T08:59:32;0.90;;;0.90;;
20090;SDS011;10205;49.678;6.560;2023-04-01T09:02:43;0.80;;;0.80;;
20090;SDS011;10205;49.678;6.560;2023-04-01T09:12:25;0.80;;;0.80;;
20090;SDS011;10205;49.678;6.560;2023-04-01T09:15:20;0.70;;;0.70;;
20090;SDS011;10205;49.678;6.560;2023-04-01T09:18:37;0.80;;;0.80;;
20090;SDS011;10205;49.678;6.560;2023-04-01T09:25:03;0.88;;;0.88;;
20090;SDS011;10205;49.678;6.560;2023-04-01T09:27:52;0.73;;;0.73;;
20090;SDS011;10205;49.678;6.560;2023-04-01T09:33:58;1.00;;;0.80;;
20090;SDS011;10205;49.678;6.560;2023-04-01T09:37:01;0.85;;;0.85;;
20090;SDS011;10205;49.678;6.560;2023-04-01T09:39:47;1.33;;;0.95;;
20090;SDS011;10205;49.678;6.560;2023-04-01T09:42:42;0.73;;;0.70;;
20090;SDS011;10205;49.678;6.560;2023-04-01T09:45:18;1.40;;;0.80;;
20090;SDS011;10205;49.678;6.560;2023-04-01T09:48:14;0.82;;;0.60;;
20090;SDS011;10205;49.678;6.560;2023-04-01T09:51:00;1.05;;;0.70;;
20090;SDS011;10205;49.678;6.560;2023-04-01T09:53:45;0.60;;;0.60;;
20090;SDS011;10205;49.678;6.560;2023-04-01T09:56:49;1.38;;;0.80;;
20090;SDS011;10205;49.678;6.560;2023-04-01T10:06:26;0.80;;;0.80;;
20090;SDS011;10205;49.678;6.560;2023-04-01T10:09:30;0.70;;;0.70;;
20090;SDS011;10205;49.678;6.560;2023-04-01T10:16:18;0.80;;;0.80;;
20090;SDS011;10205;49.678;6.560;2023-04-01T10:19:20;0.75;;;0.75;;
20090;SDS011;10205;49.678;6.560;2023-04-01T10:22:39;0.70;;;0.70;;
20090;SDS011;10205;49.678;6.560;2023-04-01T10:26:09;0.60;;;0.60;;
20090;SDS011;10205;49.678;6.560;2023-04-01T10:32:36;0.60;;;0.60;;
20090;SDS011;10205;49.678;6.560;2023-04-01T10:42:45;0.80;;;0.80;;
20090;SDS011;10205;49.678;6.560;2023-04-01T10:45:59;0.98;;;0.80;;
20090;SDS011;10205;49.678;6.560;2023-04-01T10:52:49;0.70;;;0.70;;
20090;SDS011;10205;49.678;6.560;2023-04-01T10:56:17;0.77;;;0.75;;
20090;SDS011;10205;49.678;6.560;2023-04-01T11:02:34;0.93;;;0.80;;
20090;SDS011;10205;49.678;6.560;2023-04-01T11:09:03;1.08;;;0.82;;
20090;SDS011;10205;49.678;6.560;2023-04-01T11:16:07;2.55;;;0.80;;
20090;SDS011;10205;49.678;6.560;2023-04-01T11:19:29;0.52;;;0.52;;
20090;SDS011;10205;49.678;6.560;2023-04-01T11:25:33;0.60;;;0.60;;
20090;SDS011;10205;49.678;6.560;2023-04-01T11:31:53;0.95;;;0.68;;
20090;SDS011;10205;49.678;6.560;2023-04-01T11:34:36;0.60;;;0.60;;
20090;SDS011;10205;49.678;6.560;2023-04-01T11:37:28;0.60;;;0.60;;
20090;SDS011;10205;49.678;6.560;2023-04-01T11:40:11;0.77;;;0.77;;
20090;SDS011;10205;49.678;6.560;2023-04-01T11:42:52;1.08;;;0.70;;
20090;SDS011;10205;49.678;6.560;2023-04-01T11:45:36;0.70;;;0.70;;
20090;SDS011;10205;49.678;6.560;2023-04-01T11:48:24;0.73;;;0.70;;
20090;SDS011;10205;49.678;6.560;2023-04-01T11:51:11;0.80;;;0.80;;
20090;SDS011;10205;49.678;6.560;2023-04-01T11:54:25;0.77;;;0.75;;
20090;SDS011;10205;49.678;6.560;2023-04-01T11:57:14;1.80;;;0.70;;
20090;SDS011;10205;49.678;6.560;2023-04-01T12:00:14;1.75;;;0.88;;
20090;SDS011;10205;49.678;6.560;2023-04-01T12:03:18;0.98;;;0.90;;
20090;SDS011;10205;49.678;6.560;2023-04-01T12:06:11;0.70;;;0.70;;
20090;SDS011;10205;49.678;6.560;2023-04-01T12:08:46;0.95;;;0.70;;
20090;SDS011;10205;49.678;6.560;2023-04-01T12:11:29;0.90;;;0.70;;
20090;SDS011;10205;49.678;6.560;2023-04-01T12:14:13;0.70;;;0.70;;
20090;SDS011;10205;49.678;6.560;2023-04-01T12:16:59;0.85;;;0.70;;
20090;SDS011;10205;49.678;6.560;2023-04-01T12:19:38;0.60;;;0.60;;
20090;SDS011;10205;49.678;6.560;2023-04-01T12:22:22;0.75;;;0.75;;
20090;SDS011;10205;49.678;6.560;2023-04-01T12:25:22;0.60;;;0.60;;
20090;SDS011;10205;49.678;6.560;2023-04-01T12:28:22;0.60;;;0.60;;
20090;SDS011;10205;49.678;6.560;2023-04-01T12:31:05;1.00;;;0.70;;
20090;SDS011;10205;49.678;6.560;2023-04-01T12:33:47;0.60;;;0.60;;
20090;SDS011;10205;49.678;6.560;2023-04-01T12:36:43;0.80;;;0.80;;
20090;SDS011;10205;49.678;6.560;2023-04-01T12:39:43;0.95;;;0.95;;
20090;SDS011;10205;49.678;6.560;2023-04-01T12:42:30;0.73;;;0.60;;
20090;SDS011;10205;49.678;6.560;2023-04-01T12:45:31;0.70;;;0.70;;
20090;SDS011;10205;49.678;6.560;2023-04-01T12:48:14;0.80;;;0.80;;
20090;SDS011;10205;49.678;6.560;2023-04-01T12:51:38;0.63;;;0.63;;
20090;SDS011;10205;49.678;6.560;2023-04-01T12:54:39;1.00;;;0.80;;
20090;SDS011;10205;49.678;6.560;2023-04-01T13:01:01;0.98;;;0.60;;
20090;SDS011;10205;49.678;6.560;2023-04-01T13:04:05;0.60;;;0.60;;
20090;SDS011;10205;49.678;6.560;2023-04-01T13:07:15;0.65;;;0.65;;
20090;SDS011;10205;49.678;6.560;2023-04-01T13:10:06;0.57;;;0.57;;
20090;SDS011;10205;49.678;6.560;2023-04-01T13:12:57;0.90;;;0.70;;
20090;SDS011;10205;49.678;6.560;2023-04-01T13:15:57;0.60;;;0.60;;
20090;SDS011;10205;49.678;6.560;2023-04-01T13:18:35;0.77;;;0.60;;
20090;SDS011;10205;49.678;6.560;2023-04-01T13:21:19;0.77;;;0.70;;
20090;SDS011;10205;49.678;6.560;2023-04-01T13:24:00;0.60;;;0.60;;
20090;SDS011;10205;49.678;6.560;2023-04-01T13:26:43;0.63;;;0.60;;
20090;SDS011;10205;49.678;6.560;2023-04-01T13:29:23;0.60;;;0.60;;
20090;SDS011;10205;49.678;6.560;2023-04-01T13:32:06;0.65;;;0.65;;
20090;SDS011;10205;49.678;6.560;2023-04-01T13:34:55;0.68;;;0.63;;
20090;SDS011;10205;49.678;6.560;2023-04-01T13:37:48;0.70;;;0.68;;
20090;SDS011;10205;49.678;6.560;2023-04-01T13:40:34;1.02;;;0.70;;
20090;SDS011;10205;49.678;6.560;2023-04-01T13:43:17;0.52;;;0.52;;
20090;SDS011;10205;49.678;6.560;2023-04-01T13:49:05;0.60;;;0.60;;
20090;SDS011;10205;49.678;6.560;2023-04-01T13:52:23;0.60;;;0.60;;
20090;SDS011;10205;49.678;6.560;2023-04-01T13:55:23;0.65;;;0.60;;
20090;SDS011;10205;49.678;6.560;2023-04-01T14:01:13;0.60;;;0.60;;
20090;SDS011;10205;49.678;6.560;2023-04-01T14:07:13;0.60;;;0.60;;
20090;SDS011;10205;49.678;6.560;2023-04-01T14:10:05;0.88;;;0.80;;
20090;SDS011;10205;49.678;6.560;2023-04-01T14:12:46;1.65;;;0.70;;
20090;SDS011;10205;49.678;6.560;2023-04-01T14:15:29;1.17;;;0.98;;
20090;SDS011;10205;49.678;6.560;2023-04-01T14:18:31;1.00;;;0.90;;
20090;SDS011;10205;49.678;6.560;2023-04-01T14:21:29;1.25;;;1.00;;
20090;SDS011;10205;49.678;6.560;2023-04-01T14:27:39;0.65;;;0.60;;
20090;SDS011;10205;49.678;6.560;2023-04-01T14:30:36;1.63;;;0.77;;
20090;SDS011;10205;49.678;6.560;2023-04-01T14:33:38;0.55;;;0.55;;
20090;SDS011;10205;49.678;6.560;2023-04-01T14:36:28;0.73;;;0.65;;
20090;SDS011;10205;49.678;6.560;2023-04-01T14:39:35;1.00;;;0.90;;
20090;SDS011;10205;49.678;6.560;2023-04-01T14:45:52;1.92;;;0.70;;
20090;SDS011;10205;49.678;6.560;2023-04-01T14:48:49;0.70;;;0.68;;
20090;SDS011;10205;49.678;6.560;2023-04-01T14:51:23;1.05;;;0.90;;
20090;SDS011;10205;49.678;6.560;2023-04-01T14:54:00;0.90;;;0.60;;
20090;SDS011;10205;49.678;6.560;2023-04-01T14:56:36;0.88;;;0.80;;
20090;SDS011;10205;49.678;6.560;2023-04-01T14:59:09;0.52;;;0.52;;
20090;SDS011;10205;49.678;6.560;2023-04-01T15:01:55;0.63;;;0.63;;
20090;SDS011;10205;49.678;6.560;2023-04-01T15:07:31;0.70;;;0.70;;
20090;SDS011;10205;49.678;6.560;2023-04-01T15:13:43;0.60;;;0.60;;
20090;SDS011;10205;49.678;6.560;2023-04-01T15:17:02;1.88;;;0.90;;
20090;SDS011;10205;49.678;6.560;2023-04-01T15:19:55;0.82;;;0.70;;
20090;SDS011;10205;49.678;6.560;2023-04-01T15:22:50;0.85;;;0.85;;
20090;SDS011;10205;49.678;6.560;2023-04-01T15:25:41;2.70;;;1.00;;
20090;SDS011;10205;49.678;6.560;2023-04-01T15:28:28;1.08;;;0.70;;
20090;SDS011;10205;49.678;6.560;2023-04-01T15:31:09;0.77;;;0.70;;
20090;SDS011;10205;49.678;6.560;2023-04-01T15:33:50;0.70;;;0.70;;
20090;SDS011;10205;49.678;6.560;2023-04-01T15:36:41;0.80;;;0.70;;
20090;SDS011;10205;49.678;6.560;2023-04-01T15:39:18;0.90;;;0.70;;
20090;SDS011;10205;49.678;6.560;2023-04-01T15:42:00;0.70;;;0.70;;
20090;SDS011;10205;49.678;6.560;2023-04-01T15:44:47;1.05;;;0.88;;
20090;SDS011;10205;49.678;6.560;2023-04-01T15:47:39;1.15;;;0.95;;
20090;SDS011;10205;49.678;6.560;2023-04-01T15:50:34;1.30;;;0.98;;
20090;SDS011;10205;49.678;6.560;2023-04-01T15:53:19;0.75;;;0.73;;
20090;SDS011;10205;49.678;6.560;2023-04-01T15:56:45;0.60;;;0.50;;
20090;SDS011;10205;49.678;6.560;2023-04-01T15:59:41;0.65;;;0.65;;
20090;SDS011;10205;49.678;6.560;2023-04-01T16:06:07;1.30;;;0.68;;
20090;SDS011;10205;49.678;6.560;2023-04-01T16:09:12;0.63;;;0.63;;
20090;SDS011;10205;49.678;6.560;2023-04-01T16:12:03;1.02;;;0.60;;
20090;SDS011;10205;49.678;6.560;2023-04-01T16:14:44;0.57;;;0.57;;
20090;SDS011;10205;49.678;6.560;2023-04-01T16:17:33;0.88;;;0.80;;
20090;SDS011;10205;49.678;6.560;2023-04-01T16:20:22;0.55;;;0.55;;
20090;SDS011;10205;49.678;6.560;2023-04-01T16:23:04;0.57;;;0.57;;
20090;SDS011;10205;49.678;6.560;2023-04-01T16:25:44;0.70;;;0.70;;
20090;SDS011;10205;49.678;6.560;2023-04-01T16:28:19;0.60;;;0.60;;
20090;SDS011;10205;49.678;6.560;2023-04-01T16:30:55;0.70;;;0.70;;
20090;SDS011;10205;49.678;6.560;2023-04-01T16:33:32;1.15;;;0.70;;
20090;SDS011;10205;49.678;6.560;2023-04-01T16:36:13;0.70;;;0.70;;
20090;SDS011;10205;49.678;6.560;2023-04-01T16:38:55;1.33;;;0.70;;
20090;SDS011;10205;49.678;6.560;2023-04-01T16:41:46;0.60;;;0.60;;
20090;SDS011;10205;49.678;6.560;2023-04-01T16:44:18;0.60;;;0.50;;
20090;SDS011;10205;49.678;6.560;2023-04-01T16:46:50;0.75;;;0.60;;
20090;SDS011;10205;49.678;6.560;2023-04-01T16:49:24;0.60;;;0.60;;
20090;SDS011;10205;49.678;6.560;2023-04-01T16:52:15;0.70;;;0.65;;
20090;SDS011;10205;49.678;6.560;2023-04-01T16:54:59;0.65;;;0.50;;
20090;SDS011;10205;49.678;6.560;2023-04-01T16:57:43;1.02;;;0.70;;
20090;SDS011;10205;49.678;6.560;2023-04-01T17:00:20;0.80;;;0.80;;
20090;SDS011;10205;49.678;6.560;2023-04-01T17:02:57;0.60;;;0.60;;
20090;SDS011;10205;49.678;6.560;2023-04-01T17:05:46;0.75;;;0.60;;
20090;SDS011;10205;49.678;6.560;2023-04-01T17:08:41;0.98;;;0.60;;
20090;SDS011;10205;49.678;6.560;2023-04-01T17:11:37;0.60;;;0.60;;
20090;SDS011;10205;49.678;6.560;2023-04-01T17:14:15;0.70;;;0.70;;
20090;SDS011;10205;49.678;6.560;2023-04-01T17:16:56;0.60;;;0.50;;
20090;SDS011;10205;49.678;6.560;2023-04-01T17:19:37;1.38;;;0.57;;
20090;SDS011;10205;49.678;6.560;2023-04-01T17:22:22;0.60;;;0.60;;
20090;SDS011;10205;49.678;6.560;2023-04-01T17:25:02;0.60;;;0.60;;
20090;SDS011;10205;49.678;6.560;2023-04-01T17:27:51;1.00;;;0.60;;
20090;SDS011;10205;49.678;6.560;2023-04-01T17:30:32;1.30;;;0.85;;
20090;SDS011;10205;49.678;6.560;2023-04-01T17:33:07;0.82;;;0.70;;
20090;SDS011;10205;49.678;6.560;2023-04-01T17:35:54;0.65;;;0.60;;
20090;SDS011;10205;49.678;6.560;2023-04-01T17:38:40;0.70;;;0.70;;
20090;SDS011;10205;49.678;6.560;2023-04-01T17:41:28;1.65;;;0.70;;
20090;SDS011;10205;49.678;6.560;2023-04-01T17:44:10;0.60;;;0.60;;